sensor_id;sensor_type;location;lat;lon;timestamp;temperature;humidity
14000;DHT22;7075;53.574;10.054;2023-05-16T00:00:29;13.00;99.90
14000;DHT22;7075;53.574;10.054;2023-05-16T00:03:03;13.00;99.90
14000;DHT22;7075;53.574;10.054;2023-05-16T00:05:29;13.00;99.90
14000;DHT22;7075;53.574;10.054;2023-05-16T00:07:54;13.10;99.90
14000;DHT22;7075;53.574;10.054;2023-05-16T00:10:20;13.10;99.90
14000;DHT22;7075;53.574;10.054;2023-05-16T00:12:45;13.10;99.90
14000;DHT22;7075;53.574;10.054;2023-05-16T00:15:16;13.00;99.90
14000;DHT22;7075;53.574;10.054;2023-05-16T00:17:49;13.10;99.90
14000;DHT22;7075;53.574;10.054;2023-05-16T00:20:16;13.00;99.90
14000;DHT22;7075;53.574;10.054;2023-05-16T00:22:47;13.00;99.90
14000;DHT22;7075;53.574;10.054;2023-05-16T00:25:12;13.00;99.90
14000;DHT22;7075;53.574;10.054;2023-05-16T00:27:38;12.90;99.90
14000;DHT22;7075;53.574;10.054;2023-05-16T00:30:04;13.00;99.90
14000;DHT22;7075;53.574;10.054;2023-05-16T00:32:30;13.00;99.90
14000;DHT22;7075;53.574;10.054;2023-05-16T00:34:57;13.00;99.90
14000;DHT22;7075;53.574;10.054;2023-05-16T00:37:23;13.10;99.90
14000;DHT22;7075;53.574;10.054;2023-05-16T00:39:51;13.10;99.90
14000;DHT22;7075;53.574;10.054;2023-05-16T00:42:18;13.00;99.90
14000;DHT22;7075;53.574;10.054;2023-05-16T00:44:46;13.10;99.90
14000;DHT22;7075;53.574;10.054;2023-05-16T00:47:11;13.10;99.90
14000;DHT22;7075;53.574;10.054;2023-05-16T00:49:37;13.10;99.90
14000;DHT22;7075;53.574;10.054;2023-05-16T00:52:03;13.10;99.90
14000;DHT22;7075;53.574;10.054;2023-05-16T00:54:30;13.10;99.90
14000;DHT22;7075;53.574;10.054;2023-05-16T00:56:56;13.00;99.90
14000;DHT22;7075;53.574;10.054;2023-05-16T00:59:23;13.00;99.90
14000;DHT22;7075;53.574;10.054;2023-05-16T01:01:50;13.00;99.90
14000;DHT22;7075;53.574;10.054;2023-05-16T01:04:16;13.00;99.90
14000;DHT22;7075;53.574;10.054;2023-05-16T01:06:44;13.00;99.90
14000;DHT22;7075;53.574;10.054;2023-05-16T01:09:10;13.00;99.90
14000;DHT22;7075;53.574;10.054;2023-05-16T01:14:33;12.90;99.90
14000;DHT22;7075;53.574;10.054;2023-05-16T01:23:07;12.90;99.90
14000;DHT22;7075;53.574;10.054;2023-05-16T01:25:49;12.90;99.90
14000;DHT22;7075;53.574;10.054;2023-05-16T01:28:19;12.90;99.90
14000;DHT22;7075;53.574;10.054;2023-05-16T01:30:44;12.90;99.90
14000;DHT22;7075;53.574;10.054;2023-05-16T01:33:10;12.90;99.90
14000;DHT22;7075;53.574;10.054;2023-05-16T01:35:42;13.00;99.90
14000;DHT22;7075;53.574;10.054;2023-05-16T01:38:17;12.90;99.90
14000;DHT22;7075;53.574;10.054;2023-05-16T01:40:54;13.00;99.90
14000;DHT22;7075;53.574;10.054;2023-05-16T01:43:32;12.90;99.90
14000;DHT22;7075;53.574;10.054;2023-05-16T01:46:03;12.90;99.90
14000;DHT22;7075;53.574;10.054;2023-05-16T01:48:36;12.90;99.90
14000;DHT22;7075;53.574;10.054;2023-05-16T01:51:03;12.90;99.90
14000;DHT22;7075;53.574;10.054;2023-05-16T01:53:37;12.90;99.90
14000;DHT22;7075;53.574;10.054;2023-05-16T01:56:04;12.90;99.90
14000;DHT22;7075;53.574;10.054;2023-05-16T01:58:33;12.90;99.90
14000;DHT22;7075;53.574;10.054;2023-05-16T02:01:03;12.80;99.90
14000;DHT22;7075;53.574;10.054;2023-05-16T02:03:29;12.80;99.90
14000;DHT22;7075;53.574;10.054;2023-05-16T02:05:55;12.70;99.90
14000;DHT22;7075;53.574;10.054;2023-05-16T02:08:21;12.60;99.90
14000;DHT22;7075;53.574;10.054;2023-05-16T02:10:47;12.50;99.90
14000;DHT22;7075;53.574;10.054;2023-05-16T02:13:12;12.40;99.90
14000;DHT22;7075;53.574;10.054;2023-05-16T02:15:38;12.40;99.90
14000;DHT22;7075;53.574;10.054;2023-05-16T02:18:05;12.40;99.90
14000;DHT22;7075;53.574;10.054;2023-05-16T02:20:31;12.40;99.90
14000;DHT22;7075;53.574;10.054;2023-05-16T02:22:57;12.50;99.90
14000;DHT22;7075;53.574;10.054;2023-05-16T02:25:23;12.40;99.90
14000;DHT22;7075;53.574;10.054;2023-05-16T02:27:49;12.50;99.90
14000;DHT22;7075;53.574;10.054;2023-05-16T02:30:14;12.40;99.90
14000;DHT22;7075;53.574;10.054;2023-05-16T02:32:41;12.40;99.90
14000;DHT22;7075;53.574;10.054;2023-05-16T02:35:09;12.40;99.90
14000;DHT22;7075;53.574;10.054;2023-05-16T02:37:35;12.40;99.90
14000;DHT22;7075;53.574;10.054;2023-05-16T02:40:01;12.40;99.90
14000;DHT22;7075;53.574;10.054;2023-05-16T02:42:26;12.40;99.90
14000;DHT22;7075;53.574;10.054;2023-05-16T02:44:53;12.40;99.90
14000;DHT22;7075;53.574;10.054;2023-05-16T02:47:19;12.40;99.90
14000;DHT22;7075;53.574;10.054;2023-05-16T02:49:45;12.50;99.90
14000;DHT22;7075;53.574;10.054;2023-05-16T02:52:10;12.40;99.90
14000;DHT22;7075;53.574;10.054;2023-05-16T02:54:37;12.40;99.90
14000;DHT22;7075;53.574;10.054;2023-05-16T02:57:03;12.40;99.90
14000;DHT22;7075;53.574;10.054;2023-05-16T02:59:29;12.40;99.90
14000;DHT22;7075;53.574;10.054;2023-05-16T03:01:54;12.40;99.90
14000;DHT22;7075;53.574;10.054;2023-05-16T03:04:38;12.40;99.90
14000;DHT22;7075;53.574;10.054;2023-05-16T03:07:04;12.30;99.90
14000;DHT22;7075;53.574;10.054;2023-05-16T03:09:30;12.30;99.90
14000;DHT22;7075;53.574;10.054;2023-05-16T03:11:55;12.30;99.90
14000;DHT22;7075;53.574;10.054;2023-05-16T03:14:21;12.20;99.90
14000;DHT22;7075;53.574;10.054;2023-05-16T03:16:46;12.20;99.90
14000;DHT22;7075;53.574;10.054;2023-05-16T03:19:12;12.30;99.90
14000;DHT22;7075;53.574;10.054;2023-05-16T03:21:38;12.20;99.90
14000;DHT22;7075;53.574;10.054;2023-05-16T03:24:04;12.30;99.90
14000;DHT22;7075;53.574;10.054;2023-05-16T03:26:30;12.20;99.90
14000;DHT22;7075;53.574;10.054;2023-05-16T03:28:55;12.20;99.90
14000;DHT22;7075;53.574;10.054;2023-05-16T03:31:21;12.20;99.90
14000;DHT22;7075;53.574;10.054;2023-05-16T03:34:01;12.20;99.90
14000;DHT22;7075;53.574;10.054;2023-05-16T03:36:27;12.20;99.90
14000;DHT22;7075;53.574;10.054;2023-05-16T03:38:53;12.20;99.90
14000;DHT22;7075;53.574;10.054;2023-05-16T03:41:21;12.10;99.90
14000;DHT22;7075;53.574;10.054;2023-05-16T03:43:47;12.10;99.90
14000;DHT22;7075;53.574;10.054;2023-05-16T03:46:13;12.10;99.90
14000;DHT22;7075;53.574;10.054;2023-05-16T03:48:39;12.00;99.90
14000;DHT22;7075;53.574;10.054;2023-05-16T03:51:05;11.90;99.90
14000;DHT22;7075;53.574;10.054;2023-05-16T03:53:31;11.90;99.90
14000;DHT22;7075;53.574;10.054;2023-05-16T03:55:56;12.00;99.90
14000;DHT22;7075;53.574;10.054;2023-05-16T03:58:22;11.90;99.90
14000;DHT22;7075;53.574;10.054;2023-05-16T04:00:48;11.90;99.90
14000;DHT22;7075;53.574;10.054;2023-05-16T04:03:13;11.90;99.90
14000;DHT22;7075;53.574;10.054;2023-05-16T04:05:40;11.90;99.90
14000;DHT22;7075;53.574;10.054;2023-05-16T04:08:06;11.90;99.90
14000;DHT22;7075;53.574;10.054;2023-05-16T04:10:38;11.90;99.90
14000;DHT22;7075;53.574;10.054;2023-05-16T04:13:03;11.90;99.90
14000;DHT22;7075;53.574;10.054;2023-05-16T04:15:29;11.90;99.90
14000;DHT22;7075;53.574;10.054;2023-05-16T04:17:54;11.90;99.90
14000;DHT22;7075;53.574;10.054;2023-05-16T04:20:20;11.90;99.90
14000;DHT22;7075;53.574;10.054;2023-05-16T04:22:46;11.90;99.90
14000;DHT22;7075;53.574;10.054;2023-05-16T04:25:12;11.90;99.90
14000;DHT22;7075;53.574;10.054;2023-05-16T04:27:38;11.90;99.90
14000;DHT22;7075;53.574;10.054;2023-05-16T04:30:04;11.90;99.90
14000;DHT22;7075;53.574;10.054;2023-05-16T04:32:30;11.80;99.90
14000;DHT22;7075;53.574;10.054;2023-05-16T04:34:58;11.80;99.90
14000;DHT22;7075;53.574;10.054;2023-05-16T04:37:24;11.80;99.90
14000;DHT22;7075;53.574;10.054;2023-05-16T04:39:49;11.80;99.90
14000;DHT22;7075;53.574;10.054;2023-05-16T04:42:15;11.80;99.90
14000;DHT22;7075;53.574;10.054;2023-05-16T04:44:41;11.80;99.90
14000;DHT22;7075;53.574;10.054;2023-05-16T04:47:08;11.80;99.90
14000;DHT22;7075;53.574;10.054;2023-05-16T04:49:33;11.80;99.90
14000;DHT22;7075;53.574;10.054;2023-05-16T04:52:00;11.80;99.90
14000;DHT22;7075;53.574;10.054;2023-05-16T04:54:28;11.80;99.90
14000;DHT22;7075;53.574;10.054;2023-05-16T04:56:53;11.80;99.90
14000;DHT22;7075;53.574;10.054;2023-05-16T04:59:19;11.70;99.90
14000;DHT22;7075;53.574;10.054;2023-05-16T05:01:45;11.70;99.90
14000;DHT22;7075;53.574;10.054;2023-05-16T05:04:11;11.70;99.90
14000;DHT22;7075;53.574;10.054;2023-05-16T05:06:38;11.70;99.90
14000;DHT22;7075;53.574;10.054;2023-05-16T05:09:04;11.60;99.90
14000;DHT22;7075;53.574;10.054;2023-05-16T05:11:32;11.60;99.90
14000;DHT22;7075;53.574;10.054;2023-05-16T05:14:00;11.60;99.90
14000;DHT22;7075;53.574;10.054;2023-05-16T05:16:26;11.60;99.90
14000;DHT22;7075;53.574;10.054;2023-05-16T05:18:53;11.60;99.90
14000;DHT22;7075;53.574;10.054;2023-05-16T05:21:19;11.60;99.90
14000;DHT22;7075;53.574;10.054;2023-05-16T05:23:46;11.60;99.90
14000;DHT22;7075;53.574;10.054;2023-05-16T05:26:14;11.60;99.90
14000;DHT22;7075;53.574;10.054;2023-05-16T05:28:39;11.70;99.90
14000;DHT22;7075;53.574;10.054;2023-05-16T05:31:06;11.70;99.90
14000;DHT22;7075;53.574;10.054;2023-05-16T05:33:33;11.70;99.90
14000;DHT22;7075;53.574;10.054;2023-05-16T05:35:59;11.80;99.90
14000;DHT22;7075;53.574;10.054;2023-05-16T05:38:25;11.80;99.90
14000;DHT22;7075;53.574;10.054;2023-05-16T05:40:51;11.70;99.90
14000;DHT22;7075;53.574;10.054;2023-05-16T05:43:16;11.70;99.90
14000;DHT22;7075;53.574;10.054;2023-05-16T05:45:43;11.60;99.90
14000;DHT22;7075;53.574;10.054;2023-05-16T05:48:09;11.60;99.90
14000;DHT22;7075;53.574;10.054;2023-05-16T05:50:36;11.70;99.90
14000;DHT22;7075;53.574;10.054;2023-05-16T05:53:02;11.60;99.90
14000;DHT22;7075;53.574;10.054;2023-05-16T05:55:28;11.60;99.90
14000;DHT22;7075;53.574;10.054;2023-05-16T05:57:54;11.70;99.90
14000;DHT22;7075;53.574;10.054;2023-05-16T06:00:20;11.70;99.90
14000;DHT22;7075;53.574;10.054;2023-05-16T06:02:47;11.80;99.90
14000;DHT22;7075;53.574;10.054;2023-05-16T06:05:14;11.80;99.90
14000;DHT22;7075;53.574;10.054;2023-05-16T06:07:39;11.80;99.90
14000;DHT22;7075;53.574;10.054;2023-05-16T06:10:05;11.80;99.90
14000;DHT22;7075;53.574;10.054;2023-05-16T06:12:32;11.80;99.90
14000;DHT22;7075;53.574;10.054;2023-05-16T06:14:59;11.80;99.90
14000;DHT22;7075;53.574;10.054;2023-05-16T06:17:25;11.80;99.90
14000;DHT22;7075;53.574;10.054;2023-05-16T06:19:50;11.90;99.90
14000;DHT22;7075;53.574;10.054;2023-05-16T06:22:16;11.90;99.90
14000;DHT22;7075;53.574;10.054;2023-05-16T06:24:41;11.90;99.90
14000;DHT22;7075;53.574;10.054;2023-05-16T06:27:07;11.90;99.90
14000;DHT22;7075;53.574;10.054;2023-05-16T06:29:34;11.90;99.90
14000;DHT22;7075;53.574;10.054;2023-05-16T06:31:59;11.90;99.90
14000;DHT22;7075;53.574;10.054;2023-05-16T06:34:26;11.90;99.90
14000;DHT22;7075;53.574;10.054;2023-05-16T06:36:53;11.90;99.90
14000;DHT22;7075;53.574;10.054;2023-05-16T06:39:19;11.90;99.90
14000;DHT22;7075;53.574;10.054;2023-05-16T06:41:46;11.90;99.90
14000;DHT22;7075;53.574;10.054;2023-05-16T06:44:11;11.90;99.90
14000;DHT22;7075;53.574;10.054;2023-05-16T06:46:37;11.80;99.90
14000;DHT22;7075;53.574;10.054;2023-05-16T06:49:05;11.80;99.90
14000;DHT22;7075;53.574;10.054;2023-05-16T06:51:32;11.80;99.90
14000;DHT22;7075;53.574;10.054;2023-05-16T06:53:58;11.80;99.90
14000;DHT22;7075;53.574;10.054;2023-05-16T06:56:23;11.80;99.90
14000;DHT22;7075;53.574;10.054;2023-05-16T06:58:50;11.80;99.90
14000;DHT22;7075;53.574;10.054;2023-05-16T07:01:15;11.70;99.90
14000;DHT22;7075;53.574;10.054;2023-05-16T07:03:41;11.70;99.90
14000;DHT22;7075;53.574;10.054;2023-05-16T07:06:07;11.80;99.90
14000;DHT22;7075;53.574;10.054;2023-05-16T07:08:36;11.90;99.90
14000;DHT22;7075;53.574;10.054;2023-05-16T07:11:04;11.90;99.90
14000;DHT22;7075;53.574;10.054;2023-05-16T07:13:33;11.90;99.90
14000;DHT22;7075;53.574;10.054;2023-05-16T07:16:00;11.90;99.90
14000;DHT22;7075;53.574;10.054;2023-05-16T07:18:25;11.90;99.90
14000;DHT22;7075;53.574;10.054;2023-05-16T07:20:52;11.90;99.90
14000;DHT22;7075;53.574;10.054;2023-05-16T07:23:19;12.00;99.90
14000;DHT22;7075;53.574;10.054;2023-05-16T07:25:46;12.00;99.90
14000;DHT22;7075;53.574;10.054;2023-05-16T07:28:12;12.10;99.90
14000;DHT22;7075;53.574;10.054;2023-05-16T07:30:39;12.00;99.90
14000;DHT22;7075;53.574;10.054;2023-05-16T07:33:04;12.10;99.90
14000;DHT22;7075;53.574;10.054;2023-05-16T07:35:30;12.10;99.90
14000;DHT22;7075;53.574;10.054;2023-05-16T07:37:55;12.10;99.90
14000;DHT22;7075;53.574;10.054;2023-05-16T07:40:21;12.10;99.90
14000;DHT22;7075;53.574;10.054;2023-05-16T07:42:50;12.30;99.90
14000;DHT22;7075;53.574;10.054;2023-05-16T07:45:16;12.30;99.90
14000;DHT22;7075;53.574;10.054;2023-05-16T07:47:41;12.40;99.90
14000;DHT22;7075;53.574;10.054;2023-05-16T07:50:08;12.40;99.90
14000;DHT22;7075;53.574;10.054;2023-05-16T07:52:36;12.30;99.90
14000;DHT22;7075;53.574;10.054;2023-05-16T07:55:02;12.30;99.90
14000;DHT22;7075;53.574;10.054;2023-05-16T07:57:28;12.30;99.90
14000;DHT22;7075;53.574;10.054;2023-05-16T07:59:54;12.20;99.90
14000;DHT22;7075;53.574;10.054;2023-05-16T08:02:21;12.20;99.90
14000;DHT22;7075;53.574;10.054;2023-05-16T08:04:50;12.20;99.90
14000;DHT22;7075;53.574;10.054;2023-05-16T08:07:16;12.30;99.90
14000;DHT22;7075;53.574;10.054;2023-05-16T08:09:42;12.30;99.90
14000;DHT22;7075;53.574;10.054;2023-05-16T08:12:08;12.40;99.90
14000;DHT22;7075;53.574;10.054;2023-05-16T08:14:34;12.40;99.90
14000;DHT22;7075;53.574;10.054;2023-05-16T08:17:01;12.30;99.90
14000;DHT22;7075;53.574;10.054;2023-05-16T08:19:27;12.30;99.90
14000;DHT22;7075;53.574;10.054;2023-05-16T08:21:54;12.40;99.90
14000;DHT22;7075;53.574;10.054;2023-05-16T08:24:20;12.50;99.90
14000;DHT22;7075;53.574;10.054;2023-05-16T08:26:47;12.50;99.90
14000;DHT22;7075;53.574;10.054;2023-05-16T08:29:14;12.60;99.90
14000;DHT22;7075;53.574;10.054;2023-05-16T08:31:40;12.70;99.90
14000;DHT22;7075;53.574;10.054;2023-05-16T08:34:06;12.60;99.90
14000;DHT22;7075;53.574;10.054;2023-05-16T08:36:34;12.50;99.90
14000;DHT22;7075;53.574;10.054;2023-05-16T08:38:59;12.50;99.90
14000;DHT22;7075;53.574;10.054;2023-05-16T08:41:25;12.40;99.90
14000;DHT22;7075;53.574;10.054;2023-05-16T08:43:52;12.40;99.90
14000;DHT22;7075;53.574;10.054;2023-05-16T08:46:21;12.40;99.90
14000;DHT22;7075;53.574;10.054;2023-05-16T08:48:51;12.40;99.90
14000;DHT22;7075;53.574;10.054;2023-05-16T08:51:18;12.50;99.90
14000;DHT22;7075;53.574;10.054;2023-05-16T08:53:51;12.60;99.90
14000;DHT22;7075;53.574;10.054;2023-05-16T08:56:18;12.70;99.90
14000;DHT22;7075;53.574;10.054;2023-05-16T08:58:46;12.70;99.90
14000;DHT22;7075;53.574;10.054;2023-05-16T09:01:13;12.70;99.90
14000;DHT22;7075;53.574;10.054;2023-05-16T09:03:39;12.70;99.90
14000;DHT22;7075;53.574;10.054;2023-05-16T09:06:05;12.70;99.90
14000;DHT22;7075;53.574;10.054;2023-05-16T09:08:31;12.80;99.90
14000;DHT22;7075;53.574;10.054;2023-05-16T09:10:56;12.80;99.90
14000;DHT22;7075;53.574;10.054;2023-05-16T09:13:23;12.90;99.90
14000;DHT22;7075;53.574;10.054;2023-05-16T09:16:09;12.80;99.90
14000;DHT22;7075;53.574;10.054;2023-05-16T09:18:35;12.80;99.90
14000;DHT22;7075;53.574;10.054;2023-05-16T09:21:06;12.90;99.90
14000;DHT22;7075;53.574;10.054;2023-05-16T09:23:33;12.90;99.90
14000;DHT22;7075;53.574;10.054;2023-05-16T09:25:59;12.90;99.90
14000;DHT22;7075;53.574;10.054;2023-05-16T09:28:25;12.90;99.90
14000;DHT22;7075;53.574;10.054;2023-05-16T09:30:53;13.00;99.90
14000;DHT22;7075;53.574;10.054;2023-05-16T09:33:22;13.00;99.90
14000;DHT22;7075;53.574;10.054;2023-05-16T09:35:58;13.00;99.90
14000;DHT22;7075;53.574;10.054;2023-05-16T09:38:27;13.00;99.90
14000;DHT22;7075;53.574;10.054;2023-05-16T09:40:56;13.00;99.90
14000;DHT22;7075;53.574;10.054;2023-05-16T09:43:25;12.90;99.90
14000;DHT22;7075;53.574;10.054;2023-05-16T09:45:52;12.90;99.90
14000;DHT22;7075;53.574;10.054;2023-05-16T09:48:19;12.90;99.90
14000;DHT22;7075;53.574;10.054;2023-05-16T09:50:50;13.00;99.90
14000;DHT22;7075;53.574;10.054;2023-05-16T09:53:28;13.10;99.90
14000;DHT22;7075;53.574;10.054;2023-05-16T09:56:01;13.10;99.90
14000;DHT22;7075;53.574;10.054;2023-05-16T09:58:28;13.20;99.90
14000;DHT22;7075;53.574;10.054;2023-05-16T10:00:56;13.30;99.90
14000;DHT22;7075;53.574;10.054;2023-05-16T10:03:22;13.30;99.90
14000;DHT22;7075;53.574;10.054;2023-05-16T10:05:50;13.20;99.90
14000;DHT22;7075;53.574;10.054;2023-05-16T10:08:25;13.10;99.90
14000;DHT22;7075;53.574;10.054;2023-05-16T10:10:54;13.20;99.90
14000;DHT22;7075;53.574;10.054;2023-05-16T10:13:22;13.10;99.90
14000;DHT22;7075;53.574;10.054;2023-05-16T10:15:50;13.10;99.90
14000;DHT22;7075;53.574;10.054;2023-05-16T10:18:19;13.10;99.90
14000;DHT22;7075;53.574;10.054;2023-05-16T10:20:46;13.00;99.90
14000;DHT22;7075;53.574;10.054;2023-05-16T10:23:20;13.00;99.90
14000;DHT22;7075;53.574;10.054;2023-05-16T10:25:48;13.10;99.90
14000;DHT22;7075;53.574;10.054;2023-05-16T10:28:15;13.10;99.90
14000;DHT22;7075;53.574;10.054;2023-05-16T10:30:43;13.00;99.90
14000;DHT22;7075;53.574;10.054;2023-05-16T10:33:17;13.00;99.90
14000;DHT22;7075;53.574;10.054;2023-05-16T10:35:44;13.00;99.90
14000;DHT22;7075;53.574;10.054;2023-05-16T10:38:12;13.10;99.90
14000;DHT22;7075;53.574;10.054;2023-05-16T10:40:39;13.10;99.90
14000;DHT22;7075;53.574;10.054;2023-05-16T10:43:07;13.20;99.90
14000;DHT22;7075;53.574;10.054;2023-05-16T10:45:39;13.40;99.90
14000;DHT22;7075;53.574;10.054;2023-05-16T10:48:06;13.40;99.90
14000;DHT22;7075;53.574;10.054;2023-05-16T10:50:41;13.40;99.90
14000;DHT22;7075;53.574;10.054;2023-05-16T10:56:06;13.30;99.90
14000;DHT22;7075;53.574;10.054;2023-05-16T11:01:14;13.40;99.90
14000;DHT22;7075;53.574;10.054;2023-05-16T11:03:59;13.30;99.90
14000;DHT22;7075;53.574;10.054;2023-05-16T11:06:26;13.20;99.90
14000;DHT22;7075;53.574;10.054;2023-05-16T11:11:45;13.10;99.90
14000;DHT22;7075;53.574;10.054;2023-05-16T11:14:23;13.00;99.90
14000;DHT22;7075;53.574;10.054;2023-05-16T11:17:10;13.00;99.90
14000;DHT22;7075;53.574;10.054;2023-05-16T11:19:48;13.10;99.90
14000;DHT22;7075;53.574;10.054;2023-05-16T11:25:08;13.30;99.90
14000;DHT22;7075;53.574;10.054;2023-05-16T11:27:45;13.20;99.90
14000;DHT22;7075;53.574;10.054;2023-05-16T11:30:11;13.30;99.90
14000;DHT22;7075;53.574;10.054;2023-05-16T11:32:40;13.20;99.90
14000;DHT22;7075;53.574;10.054;2023-05-16T11:35:08;13.30;99.90
14000;DHT22;7075;53.574;10.054;2023-05-16T11:37:34;13.40;99.90
14000;DHT22;7075;53.574;10.054;2023-05-16T11:40:02;13.60;99.90
14000;DHT22;7075;53.574;10.054;2023-05-16T11:42:41;13.70;99.90
14000;DHT22;7075;53.574;10.054;2023-05-16T11:45:11;13.70;99.90
14000;DHT22;7075;53.574;10.054;2023-05-16T11:47:38;13.80;99.90
14000;DHT22;7075;53.574;10.054;2023-05-16T11:50:06;13.90;99.90
14000;DHT22;7075;53.574;10.054;2023-05-16T11:52:33;14.10;99.90
14000;DHT22;7075;53.574;10.054;2023-05-16T11:54:58;14.20;99.90
14000;DHT22;7075;53.574;10.054;2023-05-16T11:57:26;14.30;99.90
14000;DHT22;7075;53.574;10.054;2023-05-16T11:59:53;14.50;99.90
14000;DHT22;7075;53.574;10.054;2023-05-16T12:02:19;14.40;99.90
14000;DHT22;7075;53.574;10.054;2023-05-16T12:04:48;14.40;99.90
14000;DHT22;7075;53.574;10.054;2023-05-16T12:07:14;14.30;99.90
14000;DHT22;7075;53.574;10.054;2023-05-16T12:09:41;14.40;99.90
14000;DHT22;7075;53.574;10.054;2023-05-16T12:12:07;14.50;99.90
14000;DHT22;7075;53.574;10.054;2023-05-16T12:14:33;14.60;99.90
14000;DHT22;7075;53.574;10.054;2023-05-16T12:16:59;14.70;99.90
14000;DHT22;7075;53.574;10.054;2023-05-16T12:19:24;14.80;99.90
14000;DHT22;7075;53.574;10.054;2023-05-16T12:21:53;14.60;99.90
14000;DHT22;7075;53.574;10.054;2023-05-16T12:24:19;14.50;99.90
14000;DHT22;7075;53.574;10.054;2023-05-16T12:26:47;14.20;99.90
14000;DHT22;7075;53.574;10.054;2023-05-16T12:29:13;14.00;99.90
14000;DHT22;7075;53.574;10.054;2023-05-16T12:31:39;14.00;99.90
14000;DHT22;7075;53.574;10.054;2023-05-16T12:34:27;14.20;99.90
14000;DHT22;7075;53.574;10.054;2023-05-16T12:36:53;14.40;99.90
14000;DHT22;7075;53.574;10.054;2023-05-16T12:39:19;14.60;99.90
14000;DHT22;7075;53.574;10.054;2023-05-16T12:41:46;14.60;99.90
14000;DHT22;7075;53.574;10.054;2023-05-16T12:44:17;14.60;99.90
14000;DHT22;7075;53.574;10.054;2023-05-16T12:46:51;14.60;99.90
14000;DHT22;7075;53.574;10.054;2023-05-16T12:49:20;14.70;99.90
14000;DHT22;7075;53.574;10.054;2023-05-16T12:51:51;14.80;99.90
14000;DHT22;7075;53.574;10.054;2023-05-16T12:54:18;14.70;99.90
14000;DHT22;7075;53.574;10.054;2023-05-16T12:56:44;14.60;99.90
14000;DHT22;7075;53.574;10.054;2023-05-16T12:59:10;14.80;99.90
14000;DHT22;7075;53.574;10.054;2023-05-16T13:01:38;14.90;99.90
14000;DHT22;7075;53.574;10.054;2023-05-16T13:04:05;15.10;99.90
14000;DHT22;7075;53.574;10.054;2023-05-16T13:06:31;15.20;99.90
14000;DHT22;7075;53.574;10.054;2023-05-16T13:08:57;15.20;99.90
14000;DHT22;7075;53.574;10.054;2023-05-16T13:11:23;15.20;99.90
14000;DHT22;7075;53.574;10.054;2023-05-16T13:13:49;14.60;99.90
14000;DHT22;7075;53.574;10.054;2023-05-16T13:16:20;14.40;99.90
14000;DHT22;7075;53.574;10.054;2023-05-16T13:18:46;14.70;99.90
14000;DHT22;7075;53.574;10.054;2023-05-16T13:21:11;14.60;99.90
14000;DHT22;7075;53.574;10.054;2023-05-16T13:23:37;14.70;99.90
14000;DHT22;7075;53.574;10.054;2023-05-16T13:26:03;14.90;99.90
14000;DHT22;7075;53.574;10.054;2023-05-16T13:28:29;14.90;99.90
14000;DHT22;7075;53.574;10.054;2023-05-16T13:30:56;15.10;99.90
14000;DHT22;7075;53.574;10.054;2023-05-16T13:33:21;15.30;99.90
14000;DHT22;7075;53.574;10.054;2023-05-16T13:35:50;15.10;99.90
14000;DHT22;7075;53.574;10.054;2023-05-16T13:38:16;14.80;99.90
14000;DHT22;7075;53.574;10.054;2023-05-16T13:40:43;14.80;99.90
14000;DHT22;7075;53.574;10.054;2023-05-16T13:43:09;14.90;99.90
14000;DHT22;7075;53.574;10.054;2023-05-16T13:45:35;15.10;99.90
14000;DHT22;7075;53.574;10.054;2023-05-16T13:48:02;15.30;99.90
14000;DHT22;7075;53.574;10.054;2023-05-16T13:50:28;15.50;99.90
14000;DHT22;7075;53.574;10.054;2023-05-16T13:52:54;15.80;99.90
14000;DHT22;7075;53.574;10.054;2023-05-16T13:55:21;15.90;99.90
14000;DHT22;7075;53.574;10.054;2023-05-16T13:57:46;15.70;99.90
14000;DHT22;7075;53.574;10.054;2023-05-16T14:00:12;15.50;99.90
14000;DHT22;7075;53.574;10.054;2023-05-16T14:02:40;15.20;99.90
14000;DHT22;7075;53.574;10.054;2023-05-16T14:05:07;14.90;99.90
14000;DHT22;7075;53.574;10.054;2023-05-16T14:07:33;14.80;99.90
14000;DHT22;7075;53.574;10.054;2023-05-16T14:09:59;14.60;99.90
14000;DHT22;7075;53.574;10.054;2023-05-16T14:12:25;14.60;99.90
14000;DHT22;7075;53.574;10.054;2023-05-16T14:14:50;14.80;99.90
14000;DHT22;7075;53.574;10.054;2023-05-16T14:17:17;14.90;99.90
14000;DHT22;7075;53.574;10.054;2023-05-16T14:19:43;14.90;99.90
14000;DHT22;7075;53.574;10.054;2023-05-16T14:22:08;15.20;99.90
14000;DHT22;7075;53.574;10.054;2023-05-16T14:24:35;15.10;99.90
14000;DHT22;7075;53.574;10.054;2023-05-16T14:27:02;15.30;99.90
14000;DHT22;7075;53.574;10.054;2023-05-16T14:29:28;15.10;99.90
14000;DHT22;7075;53.574;10.054;2023-05-16T14:31:54;15.20;99.90
14000;DHT22;7075;53.574;10.054;2023-05-16T14:34:20;15.50;99.90
14000;DHT22;7075;53.574;10.054;2023-05-16T14:36:46;15.50;99.90
14000;DHT22;7075;53.574;10.054;2023-05-16T14:39:12;15.70;99.90
14000;DHT22;7075;53.574;10.054;2023-05-16T14:41:39;15.90;99.90
14000;DHT22;7075;53.574;10.054;2023-05-16T14:44:06;16.00;99.90
14000;DHT22;7075;53.574;10.054;2023-05-16T14:46:32;15.90;99.90
14000;DHT22;7075;53.574;10.054;2023-05-16T14:48:58;15.90;99.90
14000;DHT22;7075;53.574;10.054;2023-05-16T14:51:24;15.70;99.90
14000;DHT22;7075;53.574;10.054;2023-05-16T14:53:50;15.30;99.90
14000;DHT22;7075;53.574;10.054;2023-05-16T14:56:16;15.20;99.90
14000;DHT22;7075;53.574;10.054;2023-05-16T14:58:42;15.20;99.90
14000;DHT22;7075;53.574;10.054;2023-05-16T15:01:07;15.30;99.90
14000;DHT22;7075;53.574;10.054;2023-05-16T15:03:33;15.30;99.90
14000;DHT22;7075;53.574;10.054;2023-05-16T15:05:59;15.40;99.90
14000;DHT22;7075;53.574;10.054;2023-05-16T15:08:26;15.30;99.90
14000;DHT22;7075;53.574;10.054;2023-05-16T15:10:51;15.20;99.90
14000;DHT22;7075;53.574;10.054;2023-05-16T15:13:17;15.10;99.90
14000;DHT22;7075;53.574;10.054;2023-05-16T15:15:43;14.90;99.90
14000;DHT22;7075;53.574;10.054;2023-05-16T15:18:09;14.90;99.90
14000;DHT22;7075;53.574;10.054;2023-05-16T15:20:36;15.00;99.90
14000;DHT22;7075;53.574;10.054;2023-05-16T15:23:02;15.10;99.90
14000;DHT22;7075;53.574;10.054;2023-05-16T15:25:27;15.10;99.90
14000;DHT22;7075;53.574;10.054;2023-05-16T15:27:54;15.10;99.90
14000;DHT22;7075;53.574;10.054;2023-05-16T15:30:21;15.30;99.90
14000;DHT22;7075;53.574;10.054;2023-05-16T15:32:47;15.50;99.90
14000;DHT22;7075;53.574;10.054;2023-05-16T15:35:14;15.50;99.90
14000;DHT22;7075;53.574;10.054;2023-05-16T15:37:40;15.50;99.90
14000;DHT22;7075;53.574;10.054;2023-05-16T15:40:06;15.30;99.90
14000;DHT22;7075;53.574;10.054;2023-05-16T15:42:34;15.10;99.90
14000;DHT22;7075;53.574;10.054;2023-05-16T15:45:00;15.00;99.90
14000;DHT22;7075;53.574;10.054;2023-05-16T15:47:25;14.80;99.90
14000;DHT22;7075;53.574;10.054;2023-05-16T15:49:51;14.90;99.90